sensor_id;sensor_type;location;lat;lon;timestamp;P1;durP1;ratioP1;P2;durP2;ratioP2
75171;SDS011;63750;52.418;20.742;2022-12-18T00:01:35;43.10;;;32.00;;
75171;SDS011;63750;52.418;20.742;2022-12-18T00:04:04;41.50;;;30.90;;
75171;SDS011;63750;52.418;20.742;2022-12-18T00:06:43;41.70;;;31.80;;
75171;SDS011;63750;52.418;20.742;2022-12-18T00:09:12;40.70;;;29.40;;
75171;SDS011;63750;52.418;20.742;2022-12-18T00:11:40;41.20;;;31.00;;
75171;SDS011;63750;52.418;20.742;2022-12-18T00:14:11;40.50;;;29.10;;
75171;SDS011;63750;52.418;20.742;2022-12-18T00:16:42;42.50;;;30.60;;
75171;SDS011;63750;52.418;20.742;2022-12-18T00:19:12;40.80;;;30.20;;
75171;SDS011;63750;52.418;20.742;2022-12-18T00:21:42;42.40;;;29.80;;
75171;SDS011;63750;52.418;20.742;2022-12-18T00:24:11;44.40;;;31.60;;
75171;SDS011;63750;52.418;20.742;2022-12-18T00:26:42;45.40;;;29.80;;
75171;SDS011;63750;52.418;20.742;2022-12-18T00:29:12;41.00;;;29.50;;
75171;SDS011;63750;52.418;20.742;2022-12-18T00:31:43;40.30;;;29.60;;
75171;SDS011;63750;52.418;20.742;2022-12-18T00:34:12;43.20;;;30.40;;
75171;SDS011;63750;52.418;20.742;2022-12-18T00:36:42;39.50;;;28.70;;
75171;SDS011;63750;52.418;20.742;2022-12-18T00:39:14;45.30;;;30.20;;
75171;SDS011;63750;52.418;20.742;2022-12-18T00:41:43;38.60;;;28.10;;
75171;SDS011;63750;52.418;20.742;2022-12-18T00:44:14;39.10;;;27.20;;
75171;SDS011;63750;52.418;20.742;2022-12-18T00:46:45;44.40;;;30.80;;
75171;SDS011;63750;52.418;20.742;2022-12-18T00:49:19;41.00;;;28.80;;
75171;SDS011;63750;52.418;20.742;2022-12-18T00:51:51;42.10;;;29.50;;
75171;SDS011;63750;52.418;20.742;2022-12-18T00:54:20;39.00;;;27.90;;
75171;SDS011;63750;52.418;20.742;2022-12-18T00:56:48;42.40;;;28.70;;
75171;SDS011;63750;52.418;20.742;2022-12-18T00:59:17;43.10;;;30.20;;
75171;SDS011;63750;52.418;20.742;2022-12-18T01:01:46;42.70;;;29.80;;
75171;SDS011;63750;52.418;20.742;2022-12-18T01:04:14;45.80;;;31.20;;
75171;SDS011;63750;52.418;20.742;2022-12-18T01:06:44;44.80;;;30.70;;
75171;SDS011;63750;52.418;20.742;2022-12-18T01:09:12;43.90;;;30.60;;
75171;SDS011;63750;52.418;20.742;2022-12-18T01:11:41;46.20;;;31.60;;
75171;SDS011;63750;52.418;20.742;2022-12-18T01:14:09;44.20;;;29.30;;
75171;SDS011;63750;52.418;20.742;2022-12-18T01:16:37;43.60;;;29.60;;
75171;SDS011;63750;52.418;20.742;2022-12-18T01:19:06;43.90;;;30.70;;
75171;SDS011;63750;52.418;20.742;2022-12-18T01:21:34;44.80;;;30.90;;
75171;SDS011;63750;52.418;20.742;2022-12-18T01:24:03;44.50;;;30.70;;
75171;SDS011;63750;52.418;20.742;2022-12-18T01:26:32;46.30;;;31.30;;
75171;SDS011;63750;52.418;20.742;2022-12-18T01:29:00;43.70;;;29.40;;
75171;SDS011;63750;52.418;20.742;2022-12-18T01:31:30;43.40;;;29.50;;
75171;SDS011;63750;52.418;20.742;2022-12-18T01:34:00;41.60;;;29.90;;
75171;SDS011;63750;52.418;20.742;2022-12-18T01:36:30;46.60;;;30.60;;
75171;SDS011;63750;52.418;20.742;2022-12-18T01:39:03;42.80;;;30.90;;
75171;SDS011;63750;52.418;20.742;2022-12-18T01:41:33;44.60;;;30.90;;
75171;SDS011;63750;52.418;20.742;2022-12-18T01:47:01;46.10;;;29.80;;
75171;SDS011;63750;52.418;20.742;2022-12-18T01:49:29;42.00;;;30.00;;
75171;SDS011;63750;52.418;20.742;2022-12-18T01:51:58;44.00;;;29.60;;
75171;SDS011;63750;52.418;20.742;2022-12-18T01:54:26;40.70;;;29.20;;
75171;SDS011;63750;52.418;20.742;2022-12-18T01:56:55;44.20;;;30.20;;
75171;SDS011;63750;52.418;20.742;2022-12-18T01:59:23;44.60;;;31.30;;
75171;SDS011;63750;52.418;20.742;2022-12-18T02:01:52;45.20;;;29.80;;
75171;SDS011;63750;52.418;20.742;2022-12-18T02:04:21;47.10;;;30.80;;
75171;SDS011;63750;52.418;20.742;2022-12-18T02:06:52;44.00;;;29.70;;
75171;SDS011;63750;52.418;20.742;2022-12-18T02:09:26;45.90;;;30.30;;
75171;SDS011;63750;52.418;20.742;2022-12-18T02:12:01;46.90;;;30.80;;
75171;SDS011;63750;52.418;20.742;2022-12-18T02:14:40;46.70;;;29.70;;
75171;SDS011;63750;52.418;20.742;2022-12-18T02:17:15;40.20;;;26.50;;
75171;SDS011;63750;52.418;20.742;2022-12-18T02:19:51;38.70;;;25.50;;
75171;SDS011;63750;52.418;20.742;2022-12-18T02:22:33;38.90;;;24.90;;
75171;SDS011;63750;52.418;20.742;2022-12-18T02:25:16;40.60;;;26.60;;
75171;SDS011;63750;52.418;20.742;2022-12-18T02:27:57;35.90;;;24.00;;
75171;SDS011;63750;52.418;20.742;2022-12-18T02:30:31;38.20;;;25.80;;
75171;SDS011;63750;52.418;20.742;2022-12-18T02:33:04;34.90;;;23.10;;
75171;SDS011;63750;52.418;20.742;2022-12-18T02:35:35;34.70;;;23.90;;
75171;SDS011;63750;52.418;20.742;2022-12-18T02:38:06;33.60;;;22.20;;
75171;SDS011;63750;52.418;20.742;2022-12-18T02:40:35;37.40;;;24.90;;
75171;SDS011;63750;52.418;20.742;2022-12-18T02:43:08;34.10;;;23.80;;
75171;SDS011;63750;52.418;20.742;2022-12-18T02:45:45;37.30;;;23.70;;
75171;SDS011;63750;52.418;20.742;2022-12-18T02:48:16;35.60;;;23.80;;
75171;SDS011;63750;52.418;20.742;2022-12-18T02:50:51;31.00;;;22.10;;
75171;SDS011;63750;52.418;20.742;2022-12-18T02:53:27;37.10;;;23.80;;
75171;SDS011;63750;52.418;20.742;2022-12-18T02:56:05;37.00;;;23.20;;
75171;SDS011;63750;52.418;20.742;2022-12-18T02:58:40;36.80;;;23.70;;
75171;SDS011;63750;52.418;20.742;2022-12-18T03:01:17;36.40;;;23.10;;
75171;SDS011;63750;52.418;20.742;2022-12-18T03:03:53;35.30;;;23.70;;
75171;SDS011;63750;52.418;20.742;2022-12-18T03:06:26;33.70;;;23.20;;
75171;SDS011;63750;52.418;20.742;2022-12-18T03:08:59;34.90;;;22.70;;
75171;SDS011;63750;52.418;20.742;2022-12-18T03:11:33;33.20;;;23.30;;
75171;SDS011;63750;52.418;20.742;2022-12-18T03:14:05;31.90;;;21.50;;
75171;SDS011;63750;52.418;20.742;2022-12-18T03:16:37;32.40;;;21.80;;
75171;SDS011;63750;52.418;20.742;2022-12-18T03:19:08;30.80;;;21.40;;
75171;SDS011;63750;52.418;20.742;2022-12-18T03:21:42;30.00;;;21.20;;
75171;SDS011;63750;52.418;20.742;2022-12-18T03:24:15;29.00;;;20.10;;
75171;SDS011;63750;52.418;20.742;2022-12-18T03:26:47;29.10;;;20.60;;
75171;SDS011;63750;52.418;20.742;2022-12-18T03:29:20;29.30;;;20.20;;
75171;SDS011;63750;52.418;20.742;2022-12-18T03:31:53;26.70;;;18.90;;
75171;SDS011;63750;52.418;20.742;2022-12-18T03:34:28;28.30;;;19.60;;
75171;SDS011;63750;52.418;20.742;2022-12-18T03:37:02;28.00;;;19.10;;
75171;SDS011;63750;52.418;20.742;2022-12-18T03:39:31;28.20;;;19.90;;
75171;SDS011;63750;52.418;20.742;2022-12-18T03:42:01;29.80;;;19.40;;
75171;SDS011;63750;52.418;20.742;2022-12-18T03:44:38;27.20;;;19.70;;
75171;SDS011;63750;52.418;20.742;2022-12-18T03:47:13;28.40;;;20.00;;
75171;SDS011;63750;52.418;20.742;2022-12-18T03:49:49;29.70;;;20.40;;
75171;SDS011;63750;52.418;20.742;2022-12-18T03:52:24;28.90;;;20.00;;
75171;SDS011;63750;52.418;20.742;2022-12-18T03:54:57;29.10;;;19.90;;
75171;SDS011;63750;52.418;20.742;2022-12-18T03:57:28;28.80;;;19.80;;
75171;SDS011;63750;52.418;20.742;2022-12-18T03:59:59;27.70;;;19.50;;
75171;SDS011;63750;52.418;20.742;2022-12-18T04:02:31;27.80;;;20.00;;
75171;SDS011;63750;52.418;20.742;2022-12-18T04:05:02;29.80;;;20.60;;
75171;SDS011;63750;52.418;20.742;2022-12-18T04:07:35;31.00;;;20.60;;
75171;SDS011;63750;52.418;20.742;2022-12-18T04:10:06;29.00;;;19.80;;
75171;SDS011;63750;52.418;20.742;2022-12-18T04:12:37;25.50;;;18.10;;
75171;SDS011;63750;52.418;20.742;2022-12-18T04:15:07;29.30;;;20.40;;
75171;SDS011;63750;52.418;20.742;2022-12-18T04:17:37;29.00;;;20.70;;
75171;SDS011;63750;52.418;20.742;2022-12-18T04:20:11;27.50;;;19.30;;
75171;SDS011;63750;52.418;20.742;2022-12-18T04:22:44;27.70;;;19.20;;
75171;SDS011;63750;52.418;20.742;2022-12-18T04:25:13;25.30;;;18.40;;
75171;SDS011;63750;52.418;20.742;2022-12-18T04:27:45;29.40;;;19.30;;
75171;SDS011;63750;52.418;20.742;2022-12-18T04:30:14;28.50;;;19.40;;
75171;SDS011;63750;52.418;20.742;2022-12-18T04:32:43;29.50;;;21.00;;
75171;SDS011;63750;52.418;20.742;2022-12-18T04:35:12;31.10;;;21.30;;
75171;SDS011;63750;52.418;20.742;2022-12-18T04:37:40;32.40;;;21.70;;
75171;SDS011;63750;52.418;20.742;2022-12-18T04:40:10;33.80;;;23.40;;
75171;SDS011;63750;52.418;20.742;2022-12-18T04:42:40;34.10;;;23.10;;
75171;SDS011;63750;52.418;20.742;2022-12-18T04:45:10;36.20;;;24.10;;
75171;SDS011;63750;52.418;20.742;2022-12-18T04:47:38;33.00;;;23.20;;
75171;SDS011;63750;52.418;20.742;2022-12-18T04:50:08;37.60;;;25.00;;
75171;SDS011;63750;52.418;20.742;2022-12-18T04:52:36;32.70;;;22.90;;
75171;SDS011;63750;52.418;20.742;2022-12-18T04:55:05;36.10;;;24.10;;
75171;SDS011;63750;52.418;20.742;2022-12-18T04:57:35;39.10;;;25.50;;
75171;SDS011;63750;52.418;20.742;2022-12-18T05:00:04;36.80;;;25.00;;
75171;SDS011;63750;52.418;20.742;2022-12-18T05:02:36;40.80;;;26.30;;
75171;SDS011;63750;52.418;20.742;2022-12-18T05:05:06;41.60;;;26.80;;
75171;SDS011;63750;52.418;20.742;2022-12-18T05:07:35;39.20;;;26.00;;
75171;SDS011;63750;52.418;20.742;2022-12-18T05:10:07;39.70;;;26.00;;
75171;SDS011;63750;52.418;20.742;2022-12-18T05:12:36;39.30;;;27.00;;
75171;SDS011;63750;52.418;20.742;2022-12-18T05:15:06;41.80;;;27.60;;
75171;SDS011;63750;52.418;20.742;2022-12-18T05:17:36;43.90;;;29.50;;
75171;SDS011;63750;52.418;20.742;2022-12-18T05:20:04;45.90;;;30.60;;
75171;SDS011;63750;52.418;20.742;2022-12-18T05:22:34;46.30;;;30.60;;
75171;SDS011;63750;52.418;20.742;2022-12-18T05:25:03;45.60;;;30.60;;
75171;SDS011;63750;52.418;20.742;2022-12-18T05:27:33;47.80;;;31.80;;
75171;SDS011;63750;52.418;20.742;2022-12-18T05:30:02;49.90;;;31.00;;
75171;SDS011;63750;52.418;20.742;2022-12-18T05:32:32;46.20;;;30.80;;
75171;SDS011;63750;52.418;20.742;2022-12-18T05:35:01;47.60;;;31.50;;
75171;SDS011;63750;52.418;20.742;2022-12-18T05:37:33;49.20;;;30.30;;
75171;SDS011;63750;52.418;20.742;2022-12-18T05:40:04;50.20;;;31.20;;
75171;SDS011;63750;52.418;20.742;2022-12-18T05:42:34;50.50;;;32.10;;
75171;SDS011;63750;52.418;20.742;2022-12-18T05:45:04;47.10;;;30.50;;
75171;SDS011;63750;52.418;20.742;2022-12-18T05:47:34;48.80;;;30.90;;
75171;SDS011;63750;52.418;20.742;2022-12-18T05:50:03;48.80;;;31.10;;
75171;SDS011;63750;52.418;20.742;2022-12-18T05:52:34;46.50;;;31.90;;
75171;SDS011;63750;52.418;20.742;2022-12-18T05:55:03;47.50;;;31.30;;
75171;SDS011;63750;52.418;20.742;2022-12-18T05:57:32;51.30;;;31.90;;
75171;SDS011;63750;52.418;20.742;2022-12-18T06:00:01;45.80;;;30.00;;
75171;SDS011;63750;52.418;20.742;2022-12-18T06:02:31;49.00;;;32.20;;
75171;SDS011;63750;52.418;20.742;2022-12-18T06:05:01;50.40;;;29.80;;
75171;SDS011;63750;52.418;20.742;2022-12-18T06:07:32;52.40;;;31.80;;
75171;SDS011;63750;52.418;20.742;2022-12-18T06:10:01;52.90;;;32.40;;
75171;SDS011;63750;52.418;20.742;2022-12-18T06:12:31;54.60;;;32.50;;
75171;SDS011;63750;52.418;20.742;2022-12-18T06:15:00;57.80;;;33.30;;
75171;SDS011;63750;52.418;20.742;2022-12-18T06:17:30;51.70;;;31.20;;
75171;SDS011;63750;52.418;20.742;2022-12-18T06:20:00;54.10;;;33.50;;
75171;SDS011;63750;52.418;20.742;2022-12-18T06:22:30;59.10;;;33.40;;
75171;SDS011;63750;52.418;20.742;2022-12-18T06:24:59;55.00;;;34.40;;
75171;SDS011;63750;52.418;20.742;2022-12-18T06:27:28;56.60;;;33.70;;
75171;SDS011;63750;52.418;20.742;2022-12-18T06:29:56;53.30;;;33.40;;
75171;SDS011;63750;52.418;20.742;2022-12-18T06:32:24;56.60;;;34.80;;
75171;SDS011;63750;52.418;20.742;2022-12-18T06:34:53;54.10;;;34.90;;
75171;SDS011;63750;52.418;20.742;2022-12-18T06:37:21;60.90;;;36.70;;
75171;SDS011;63750;52.418;20.742;2022-12-18T06:39:51;57.00;;;34.60;;
75171;SDS011;63750;52.418;20.742;2022-12-18T06:42:21;57.70;;;34.80;;
75171;SDS011;63750;52.418;20.742;2022-12-18T06:44:52;55.00;;;33.80;;
75171;SDS011;63750;52.418;20.742;2022-12-18T06:47:21;57.10;;;34.60;;
75171;SDS011;63750;52.418;20.742;2022-12-18T06:49:50;60.00;;;35.10;;
75171;SDS011;63750;52.418;20.742;2022-12-18T06:52:20;61.00;;;34.10;;
75171;SDS011;63750;52.418;20.742;2022-12-18T06:54:51;61.00;;;35.20;;
75171;SDS011;63750;52.418;20.742;2022-12-18T06:57:20;57.70;;;34.80;;
75171;SDS011;63750;52.418;20.742;2022-12-18T06:59:50;62.10;;;34.40;;
75171;SDS011;63750;52.418;20.742;2022-12-18T07:02:19;60.90;;;35.30;;
75171;SDS011;63750;52.418;20.742;2022-12-18T07:04:48;54.70;;;34.00;;
75171;SDS011;63750;52.418;20.742;2022-12-18T07:07:18;54.30;;;33.60;;
75171;SDS011;63750;52.418;20.742;2022-12-18T07:09:48;58.50;;;35.00;;
75171;SDS011;63750;52.418;20.742;2022-12-18T07:12:18;55.10;;;33.60;;
75171;SDS011;63750;52.418;20.742;2022-12-18T07:14:47;64.30;;;35.60;;
75171;SDS011;63750;52.418;20.742;2022-12-18T07:17:16;62.10;;;35.80;;
75171;SDS011;63750;52.418;20.742;2022-12-18T07:19:45;57.70;;;35.70;;
75171;SDS011;63750;52.418;20.742;2022-12-18T07:22:14;60.70;;;35.70;;
75171;SDS011;63750;52.418;20.742;2022-12-18T07:24:43;61.50;;;37.90;;
75171;SDS011;63750;52.418;20.742;2022-12-18T07:27:12;60.70;;;36.10;;
75171;SDS011;63750;52.418;20.742;2022-12-18T07:29:40;66.30;;;38.60;;
75171;SDS011;63750;52.418;20.742;2022-12-18T07:32:09;65.20;;;37.80;;
75171;SDS011;63750;52.418;20.742;2022-12-18T07:34:41;65.20;;;38.20;;
75171;SDS011;63750;52.418;20.742;2022-12-18T07:37:09;66.00;;;38.20;;
75171;SDS011;63750;52.418;20.742;2022-12-18T07:39:37;65.60;;;39.20;;
75171;SDS011;63750;52.418;20.742;2022-12-18T07:42:07;63.90;;;39.90;;
75171;SDS011;63750;52.418;20.742;2022-12-18T07:44:36;61.00;;;37.30;;
75171;SDS011;63750;52.418;20.742;2022-12-18T07:47:06;63.70;;;37.10;;
75171;SDS011;63750;52.418;20.742;2022-12-18T07:49:35;60.20;;;35.90;;
75171;SDS011;63750;52.418;20.742;2022-12-18T07:52:03;60.00;;;34.80;;
75171;SDS011;63750;52.418;20.742;2022-12-18T07:54:32;59.40;;;34.30;;
75171;SDS011;63750;52.418;20.742;2022-12-18T07:57:01;60.30;;;36.20;;
75171;SDS011;63750;52.418;20.742;2022-12-18T07:59:30;61.90;;;36.00;;
75171;SDS011;63750;52.418;20.742;2022-12-18T08:02:00;64.90;;;38.00;;
75171;SDS011;63750;52.418;20.742;2022-12-18T08:04:30;70.00;;;38.80;;
75171;SDS011;63750;52.418;20.742;2022-12-18T08:07:01;68.30;;;39.10;;
75171;SDS011;63750;52.418;20.742;2022-12-18T08:09:31;62.80;;;38.00;;
75171;SDS011;63750;52.418;20.742;2022-12-18T08:12:02;69.30;;;38.40;;
75171;SDS011;63750;52.418;20.742;2022-12-18T08:14:31;62.40;;;37.00;;
75171;SDS011;63750;52.418;20.742;2022-12-18T08:17:00;64.20;;;37.10;;
75171;SDS011;63750;52.418;20.742;2022-12-18T08:19:29;62.00;;;37.10;;
75171;SDS011;63750;52.418;20.742;2022-12-18T08:21:58;63.60;;;38.20;;
75171;SDS011;63750;52.418;20.742;2022-12-18T08:24:27;65.20;;;37.40;;
75171;SDS011;63750;52.418;20.742;2022-12-18T08:26:56;63.80;;;38.70;;
75171;SDS011;63750;52.418;20.742;2022-12-18T08:29:25;62.70;;;38.40;;
75171;SDS011;63750;52.418;20.742;2022-12-18T08:31:53;61.50;;;36.40;;
75171;SDS011;63750;52.418;20.742;2022-12-18T08:34:22;66.00;;;37.30;;
75171;SDS011;63750;52.418;20.742;2022-12-18T08:36:51;58.80;;;34.90;;
75171;SDS011;63750;52.418;20.742;2022-12-18T08:39:19;62.60;;;37.60;;
75171;SDS011;63750;52.418;20.742;2022-12-18T08:41:49;66.00;;;38.00;;
75171;SDS011;63750;52.418;20.742;2022-12-18T08:44:19;71.30;;;38.40;;
75171;SDS011;63750;52.418;20.742;2022-12-18T08:46:47;66.10;;;38.40;;
75171;SDS011;63750;52.418;20.742;2022-12-18T08:49:16;68.00;;;39.20;;
75171;SDS011;63750;52.418;20.742;2022-12-18T08:51:45;63.80;;;38.90;;
75171;SDS011;63750;52.418;20.742;2022-12-18T08:54:14;65.70;;;40.50;;
75171;SDS011;63750;52.418;20.742;2022-12-18T08:56:44;62.30;;;37.90;;
75171;SDS011;63750;52.418;20.742;2022-12-18T08:59:12;58.50;;;37.90;;
75171;SDS011;63750;52.418;20.742;2022-12-18T09:01:41;62.60;;;38.80;;
75171;SDS011;63750;52.418;20.742;2022-12-18T09:04:11;64.20;;;39.50;;
75171;SDS011;63750;52.418;20.742;2022-12-18T09:06:40;67.70;;;40.00;;
75171;SDS011;63750;52.418;20.742;2022-12-18T09:09:09;61.40;;;38.30;;
75171;SDS011;63750;52.418;20.742;2022-12-18T09:11:39;61.20;;;39.40;;
75171;SDS011;63750;52.418;20.742;2022-12-18T09:14:08;61.60;;;39.70;;
75171;SDS011;63750;52.418;20.742;2022-12-18T09:16:38;61.10;;;38.10;;
75171;SDS011;63750;52.418;20.742;2022-12-18T09:19:08;64.40;;;40.90;;
75171;SDS011;63750;52.418;20.742;2022-12-18T09:21:37;64.70;;;39.70;;
75171;SDS011;63750;52.418;20.742;2022-12-18T09:24:06;65.00;;;41.50;;
75171;SDS011;63750;52.418;20.742;2022-12-18T09:26:38;68.50;;;42.70;;
75171;SDS011;63750;52.418;20.742;2022-12-18T09:29:06;63.70;;;40.70;;
75171;SDS011;63750;52.418;20.742;2022-12-18T09:31:36;69.30;;;42.90;;
75171;SDS011;63750;52.418;20.742;2022-12-18T09:34:07;66.30;;;41.90;;
75171;SDS011;63750;52.418;20.742;2022-12-18T09:36:36;66.40;;;41.40;;
75171;SDS011;63750;52.418;20.742;2022-12-18T09:39:05;74.40;;;43.70;;
75171;SDS011;63750;52.418;20.742;2022-12-18T09:41:43;72.80;;;44.60;;
75171;SDS011;63750;52.418;20.742;2022-12-18T09:44:16;64.90;;;43.50;;
75171;SDS011;63750;52.418;20.742;2022-12-18T09:46:52;65.20;;;41.40;;
75171;SDS011;63750;52.418;20.742;2022-12-18T09:49:27;62.80;;;40.50;;
75171;SDS011;63750;52.418;20.742;2022-12-18T09:52:02;67.40;;;43.60;;
75171;SDS011;63750;52.418;20.742;2022-12-18T09:54:38;68.80;;;45.50;;
75171;SDS011;63750;52.418;20.742;2022-12-18T09:57:10;60.90;;;41.50;;
75171;SDS011;63750;52.418;20.742;2022-12-18T09:59:44;62.60;;;40.50;;
75171;SDS011;63750;52.418;20.742;2022-12-18T10:02:17;66.10;;;41.90;;
75171;SDS011;63750;52.418;20.742;2022-12-18T10:04:49;60.80;;;42.90;;
75171;SDS011;63750;52.418;20.742;2022-12-18T10:07:37;62.50;;;39.70;;
75171;SDS011;63750;52.418;20.742;2022-12-18T10:10:19;59.30;;;38.00;;
75171;SDS011;63750;52.418;20.742;2022-12-18T10:12:57;62.90;;;40.40;;
75171;SDS011;63750;52.418;20.742;2022-12-18T10:15:36;64.70;;;42.00;;
75171;SDS011;63750;52.418;20.742;2022-12-18T10:18:18;66.00;;;42.20;;
75171;SDS011;63750;52.418;20.742;2022-12-18T10:20:57;59.50;;;40.70;;
75171;SDS011;63750;52.418;20.742;2022-12-18T10:23:33;61.80;;;41.50;;
75171;SDS011;63750;52.418;20.742;2022-12-18T10:26:08;60.10;;;40.40;;
75171;SDS011;63750;52.418;20.742;2022-12-18T10:28:38;62.00;;;38.20;;
75171;SDS011;63750;52.418;20.742;2022-12-18T10:31:07;60.60;;;40.30;;
75171;SDS011;63750;52.418;20.742;2022-12-18T10:33:42;61.80;;;40.60;;
75171;SDS011;63750;52.418;20.742;2022-12-18T10:36:12;64.90;;;39.70;;
75171;SDS011;63750;52.418;20.742;2022-12-18T10:38:40;62.40;;;39.60;;
75171;SDS011;63750;52.418;20.742;2022-12-18T10:41:23;61.80;;;39.50;;
75171;SDS011;63750;52.418;20.742;2022-12-18T10:44:10;64.60;;;41.10;;
75171;SDS011;63750;52.418;20.742;2022-12-18T10:46:43;61.30;;;40.60;;
75171;SDS011;63750;52.418;20.742;2022-12-18T10:49:22;59.90;;;38.70;;
75171;SDS011;63750;52.418;20.742;2022-12-18T10:51:53;58.70;;;37.70;;
75171;SDS011;63750;52.418;20.742;2022-12-18T10:54:34;56.70;;;36.00;;
75171;SDS011;63750;52.418;20.742;2022-12-18T10:57:16;57.50;;;36.90;;
75171;SDS011;63750;52.418;20.742;2022-12-18T10:59:58;58.20;;;37.00;;
75171;SDS011;63750;52.418;20.742;2022-12-18T11:02:43;59.80;;;38.40;;
75171;SDS011;63750;52.418;20.742;2022-12-18T11:05:23;58.70;;;36.80;;
75171;SDS011;63750;52.418;20.742;2022-12-18T11:07:55;57.60;;;36.00;;
75171;SDS011;63750;52.418;20.742;2022-12-18T11:10:25;55.70;;;35.50;;
75171;SDS011;63750;52.418;20.742;2022-12-18T11:12:57;58.30;;;36.10;;
75171;SDS011;63750;52.418;20.742;2022-12-18T11:15:39;55.40;;;35.40;;
75171;SDS011;63750;52.418;20.742;2022-12-18T11:18:14;58.70;;;37.50;;
75171;SDS011;63750;52.418;20.742;2022-12-18T11:20:51;57.20;;;35.80;;
75171;SDS011;63750;52.418;20.742;2022-12-18T11:23:22;59.10;;;35.10;;
75171;SDS011;63750;52.418;20.742;2022-12-18T11:25:55;59.20;;;36.30;;
75171;SDS011;63750;52.418;20.742;2022-12-18T11:28:28;61.60;;;35.60;;
75171;SDS011;63750;52.418;20.742;2022-12-18T11:31:15;59.80;;;37.70;;
75171;SDS011;63750;52.418;20.742;2022-12-18T11:33:52;116.70;;;55.10;;
75171;SDS011;63750;52.418;20.742;2022-12-18T11:36:31;65.70;;;38.40;;
75171;SDS011;63750;52.418;20.742;2022-12-18T11:39:07;121.80;;;53.60;;
75171;SDS011;63750;52.418;20.742;2022-12-18T11:41:41;68.30;;;41.80;;
75171;SDS011;63750;52.418;20.742;2022-12-18T11:44:18;55.70;;;36.90;;
75171;SDS011;63750;52.418;20.742;2022-12-18T11:46:51;56.60;;;36.00;;
75171;SDS011;63750;52.418;20.742;2022-12-18T11:49:24;62.50;;;37.70;;
75171;SDS011;63750;52.418;20.742;2022-12-18T11:52:01;54.30;;;35.90;;
75171;SDS011;63750;52.418;20.742;2022-12-18T11:54:38;57.80;;;36.90;;
75171;SDS011;63750;52.418;20.742;2022-12-18T11:57:09;57.00;;;36.40;;
75171;SDS011;63750;52.418;20.742;2022-12-18T11:59:51;60.00;;;37.50;;
75171;SDS011;63750;52.418;20.742;2022-12-18T12:08:20;57.50;;;37.20;;
75171;SDS011;63750;52.418;20.742;2022-12-18T12:11:01;61.50;;;38.50;;
75171;SDS011;63750;52.418;20.742;2022-12-18T12:13:41;59.50;;;39.00;;
75171;SDS011;63750;52.418;20.742;2022-12-18T12:16:21;59.40;;;37.90;;
75171;SDS011;63750;52.418;20.742;2022-12-18T12:19:04;63.10;;;38.50;;
75171;SDS011;63750;52.418;20.742;2022-12-18T12:21:46;65.60;;;38.30;;
75171;SDS011;63750;52.418;20.742;2022-12-18T12:24:24;63.80;;;39.10;;
75171;SDS011;63750;52.418;20.742;2022-12-18T12:27:03;60.20;;;37.60;;
75171;SDS011;63750;52.418;20.742;2022-12-18T12:29:42;62.80;;;37.40;;
75171;SDS011;63750;52.418;20.742;2022-12-18T12:32:25;61.10;;;37.70;;
75171;SDS011;63750;52.418;20.742;2022-12-18T12:35:08;60.50;;;38.20;;
75171;SDS011;63750;52.418;20.742;2022-12-18T12:37:50;62.60;;;38.40;;
75171;SDS011;63750;52.418;20.742;2022-12-18T12:40:26;63.40;;;38.40;;
75171;SDS011;63750;52.418;20.742;2022-12-18T12:42:58;64.20;;;38.80;;
75171;SDS011;63750;52.418;20.742;2022-12-18T12:45:33;61.50;;;37.90;;
75171;SDS011;63750;52.418;20.742;2022-12-18T12:48:13;59.00;;;36.20;;
75171;SDS011;63750;52.418;20.742;2022-12-18T12:50:50;64.40;;;37.40;;
75171;SDS011;63750;52.418;20.742;2022-12-18T12:53:23;64.00;;;39.00;;
75171;SDS011;63750;52.418;20.742;2022-12-18T12:55:57;60.50;;;38.80;;
75171;SDS011;63750;52.418;20.742;2022-12-18T12:58:28;60.00;;;38.30;;
75171;SDS011;63750;52.418;20.742;2022-12-18T13:01:08;63.50;;;39.10;;
75171;SDS011;63750;52.418;20.742;2022-12-18T13:06:35;61.20;;;39.40;;
75171;SDS011;63750;52.418;20.742;2022-12-18T13:09:09;64.60;;;39.30;;
75171;SDS011;63750;52.418;20.742;2022-12-18T13:11:41;67.50;;;41.40;;
75171;SDS011;63750;52.418;20.742;2022-12-18T13:14:22;68.10;;;39.40;;
75171;SDS011;63750;52.418;20.742;2022-12-18T13:16:54;63.80;;;39.70;;
75171;SDS011;63750;52.418;20.742;2022-12-18T13:19:51;69.70;;;41.40;;
75171;SDS011;63750;52.418;20.742;2022-12-18T13:22:32;63.10;;;40.70;;
75171;SDS011;63750;52.418;20.742;2022-12-18T13:25:04;67.30;;;40.00;;
75171;SDS011;63750;52.418;20.742;2022-12-18T13:28:08;65.40;;;40.30;;
75171;SDS011;63750;52.418;20.742;2022-12-18T13:30:54;67.20;;;41.70;;
75171;SDS011;63750;52.418;20.742;2022-12-18T13:41:52;66.00;;;40.70;;
75171;SDS011;63750;52.418;20.742;2022-12-18T13:44:42;66.70;;;40.40;;
75171;SDS011;63750;52.418;20.742;2022-12-18T13:47:24;63.30;;;40.00;;
75171;SDS011;63750;52.418;20.742;2022-12-18T13:49:55;66.00;;;40.40;;
75171;SDS011;63750;52.418;20.742;2022-12-18T13:52:25;65.00;;;41.00;;
75171;SDS011;63750;52.418;20.742;2022-12-18T13:55:01;67.80;;;40.60;;
75171;SDS011;63750;52.418;20.742;2022-12-18T13:57:33;74.00;;;42.10;;
75171;SDS011;63750;52.418;20.742;2022-12-18T14:00:16;66.40;;;41.60;;
75171;SDS011;63750;52.418;20.742;2022-12-18T14:02:51;70.00;;;42.80;;
75171;SDS011;63750;52.418;20.742;2022-12-18T14:05:23;72.60;;;44.00;;
75171;SDS011;63750;52.418;20.742;2022-12-18T14:07:52;70.50;;;42.90;;
75171;SDS011;63750;52.418;20.742;2022-12-18T14:10:28;77.50;;;45.60;;
75171;SDS011;63750;52.418;20.742;2022-12-18T14:12:58;74.20;;;44.40;;
75171;SDS011;63750;52.418;20.742;2022-12-18T14:15:33;78.90;;;45.60;;
75171;SDS011;63750;52.418;20.742;2022-12-18T14:18:13;76.10;;;44.30;;
75171;SDS011;63750;52.418;20.742;2022-12-18T14:20:47;82.70;;;48.20;;
75171;SDS011;63750;52.418;20.742;2022-12-18T14:23:27;82.50;;;45.30;;
75171;SDS011;63750;52.418;20.742;2022-12-18T14:25:58;82.90;;;47.60;;
75171;SDS011;63750;52.418;20.742;2022-12-18T14:28:28;84.00;;;47.70;;
75171;SDS011;63750;52.418;20.742;2022-12-18T14:30:56;83.50;;;46.00;;
75171;SDS011;63750;52.418;20.742;2022-12-18T14:33:26;80.50;;;46.00;;
75171;SDS011;63750;52.418;20.742;2022-12-18T14:35:56;84.70;;;48.60;;
75171;SDS011;63750;52.418;20.742;2022-12-18T14:38:38;84.10;;;46.70;;
75171;SDS011;63750;52.418;20.742;2022-12-18T14:41:09;82.50;;;46.90;;
75171;SDS011;63750;52.418;20.742;2022-12-18T14:43:40;80.90;;;45.40;;
75171;SDS011;63750;52.418;20.742;2022-12-18T14:49:03;79.00;;;44.80;;
75171;SDS011;63750;52.418;20.742;2022-12-18T14:51:48;88.90;;;47.00;;
75171;SDS011;63750;52.418;20.742;2022-12-18T14:54:20;86.50;;;46.60;;
75171;SDS011;63750;52.418;20.742;2022-12-18T14:56:54;90.20;;;45.70;;
75171;SDS011;63750;52.418;20.742;2022-12-18T14:59:27;82.90;;;45.00;;
75171;SDS011;63750;52.418;20.742;2022-12-18T15:01:59;80.10;;;44.00;;